createdAt,value
2023-05-16T00:02:19.206Z,43.71
2023-05-16T00:04:51.127Z,44.11
2023-05-16T00:07:20.589Z,43.92
2023-05-16T00:09:49.548Z,43.88
2023-05-16T00:12:27.777Z,44.10
2023-05-16T00:15:01.147Z,44.23
2023-05-16T00:17:30.544Z,44.59
2023-05-16T00:20:03.266Z,44.57
2023-05-16T00:22:32.225Z,44.89
2023-05-16T00:25:04.199Z,44.57
2023-05-16T00:27:33.237Z,45.14
2023-05-16T00:30:02.942Z,44.81
2023-05-16T00:32:32.234Z,44.81
2023-05-16T00:35:01.305Z,44.32
2023-05-16T00:37:30.459Z,45.07
2023-05-16T00:39:59.602Z,44.81
2023-05-16T00:42:28.881Z,44.50
2023-05-16T00:45:00.532Z,44.34
2023-05-16T00:47:29.658Z,44.79
2023-05-16T00:49:59.181Z,45.33
2023-05-16T00:52:28.244Z,44.68
2023-05-16T00:54:57.237Z,44.66
2023-05-16T00:57:26.848Z,44.64
2023-05-16T00:59:55.911Z,45.20
2023-05-16T01:02:24.990Z,44.73
2023-05-16T01:04:57.129Z,45.17
2023-05-16T01:07:26.310Z,44.99
2023-05-16T01:09:55.383Z,44.79
2023-05-16T01:12:44.474Z,44.38
2023-05-16T01:15:48.505Z,43.65
2023-05-16T01:18:22.852Z,44.91
2023-05-16T01:20:53.630Z,44.26
2023-05-16T01:23:22.895Z,46.46
2023-05-16T01:26:10.232Z,46.84
2023-05-16T01:28:39.214Z,46.27
2023-05-16T01:31:08.368Z,45.76
2023-05-16T01:33:38.145Z,46.08
2023-05-16T01:36:29.181Z,44.53
2023-05-16T01:39:20.187Z,44.21
2023-05-16T01:42:10.471Z,43.21
2023-05-16T01:44:48.350Z,42.99
2023-05-16T01:47:20.071Z,43.20
2023-05-16T01:50:07.395Z,43.98
2023-05-16T01:53:04.147Z,44.08
2023-05-16T01:55:47.456Z,43.19
2023-05-16T01:58:21.762Z,42.99
2023-05-16T02:00:51.026Z,43.09
2023-05-16T02:03:26.336Z,43.45
2023-05-16T02:05:55.990Z,43.01
2023-05-16T02:08:28.369Z,43.24
2023-05-16T02:10:58.260Z,43.43
2023-05-16T02:13:30.835Z,43.16
2023-05-16T02:16:00.572Z,43.09
2023-05-16T02:18:36.260Z,43.45
2023-05-16T02:21:06.582Z,43.36
2023-05-16T02:23:36.248Z,43.37
2023-05-16T02:26:06.052Z,43.59
2023-05-16T02:28:38.522Z,43.44
2023-05-16T02:31:09.079Z,43.41
2023-05-16T02:33:38.850Z,43.64
2023-05-16T02:36:08.667Z,43.46
2023-05-16T02:38:38.228Z,43.44
2023-05-16T02:41:07.907Z,43.63
2023-05-16T02:43:37.761Z,43.62
2023-05-16T02:46:21.938Z,43.55
2023-05-16T02:48:52.841Z,43.55
2023-05-16T02:51:28.263Z,44.00
2023-05-16T02:54:07.130Z,43.88
2023-05-16T02:56:37.442Z,44.09
2023-05-16T02:59:10.598Z,44.26
2023-05-16T03:01:40.405Z,44.32
2023-05-16T03:04:10.212Z,44.21
2023-05-16T03:06:46.199Z,44.21
2023-05-16T03:09:18.940Z,44.27
2023-05-16T03:11:48.977Z,44.27
2023-05-16T03:14:18.690Z,44.71
2023-05-16T03:16:48.652Z,45.04
2023-05-16T03:19:18.525Z,44.31
2023-05-16T03:21:48.422Z,44.66
2023-05-16T03:24:18.315Z,45.01
2023-05-16T03:26:52.252Z,46.05
2023-05-16T03:29:28.658Z,46.40
2023-05-16T03:31:58.451Z,46.51
2023-05-16T03:34:28.076Z,45.95
2023-05-16T03:36:58.012Z,46.07
2023-05-16T03:39:27.705Z,45.72
2023-05-16T03:41:58.711Z,45.99
2023-05-16T03:44:28.411Z,45.84
2023-05-16T03:46:58.294Z,45.45
2023-05-16T03:49:32.229Z,45.20
2023-05-16T03:52:01.980Z,44.75
2023-05-16T03:54:31.659Z,44.67
2023-05-16T03:57:01.354Z,44.65
2023-05-16T03:59:31.262Z,44.28
2023-05-16T04:02:00.957Z,44.55
2023-05-16T04:04:30.822Z,44.63
2023-05-16T04:07:08.145Z,44.80
2023-05-16T04:09:37.841Z,44.98
2023-05-16T04:12:10.791Z,44.66
2023-05-16T04:14:40.900Z,44.39
2023-05-16T04:17:11.162Z,44.53
2023-05-16T04:19:40.935Z,44.60
2023-05-16T04:22:10.574Z,44.76
2023-05-16T04:24:40.239Z,45.27
2023-05-16T04:27:14.209Z,44.94
2023-05-16T04:29:44.112Z,44.83
2023-05-16T04:32:19.114Z,45.04
2023-05-16T04:34:50.067Z,44.96
2023-05-16T04:37:20.097Z,45.05
2023-05-16T04:39:49.710Z,45.22
2023-05-16T04:42:19.503Z,44.93
2023-05-16T04:44:49.464Z,44.93
2023-05-16T04:47:19.328Z,44.96
2023-05-16T04:49:59.354Z,45.26
2023-05-16T04:52:29.079Z,45.15
2023-05-16T04:55:00.943Z,45.25
2023-05-16T04:57:30.894Z,45.26
2023-05-16T05:00:00.654Z,45.35
2023-05-16T05:02:30.395Z,45.34
2023-05-16T05:05:00.238Z,44.97
2023-05-16T05:07:30.739Z,44.89
2023-05-16T05:10:00.404Z,44.01
2023-05-16T05:12:30.548Z,43.65
2023-05-16T05:15:00.171Z,43.29
2023-05-16T05:17:31.279Z,43.35
2023-05-16T05:20:03.218Z,43.00
2023-05-16T05:22:33.178Z,43.06
2023-05-16T05:25:03.419Z,42.67
2023-05-16T05:27:33.162Z,43.07
2023-05-16T05:30:02.856Z,42.90
2023-05-16T05:32:32.669Z,42.88
2023-05-16T05:35:02.568Z,43.27
2023-05-16T05:37:32.750Z,43.28
2023-05-16T05:40:05.835Z,43.50
2023-05-16T05:42:38.629Z,43.59
2023-05-16T05:45:11.713Z,43.36
2023-05-16T05:47:49.177Z,43.61
2023-05-16T05:50:19.157Z,43.62
2023-05-16T05:52:48.844Z,43.21
2023-05-16T05:55:18.708Z,43.35
2023-05-16T05:57:54.195Z,43.38
2023-05-16T06:00:29.433Z,43.20
2023-05-16T06:03:10.070Z,41.91
2023-05-16T06:05:43.228Z,42.03
2023-05-16T06:08:14.264Z,42.40
2023-05-16T06:10:49.975Z,42.08
2023-05-16T06:13:22.804Z,41.77
2023-05-16T06:16:01.217Z,42.15
2023-05-16T06:18:31.507Z,41.53
2023-05-16T06:21:01.199Z,41.66
2023-05-16T06:23:30.953Z,41.44
2023-05-16T06:26:00.555Z,41.00
2023-05-16T06:28:33.280Z,41.10
2023-05-16T06:31:03.012Z,40.44
2023-05-16T06:33:32.798Z,39.34
2023-05-16T06:36:03.567Z,40.40
2023-05-16T06:38:33.352Z,40.25
2023-05-16T06:41:03.061Z,40.08
2023-05-16T06:43:35.528Z,40.13
2023-05-16T06:46:07.527Z,39.95
2023-05-16T06:48:43.041Z,39.98
2023-05-16T06:51:18.126Z,39.68
2023-05-16T06:53:50.729Z,39.84
2023-05-16T06:56:19.872Z,39.43
2023-05-16T06:58:49.255Z,39.49
2023-05-16T07:01:23.659Z,39.60
2023-05-16T07:03:52.855Z,39.49
2023-05-16T07:06:27.503Z,39.33
2023-05-16T07:08:56.995Z,39.35
2023-05-16T07:11:26.148Z,39.61
2023-05-16T07:13:58.358Z,39.44
2023-05-16T07:16:30.006Z,39.13
2023-05-16T07:18:59.363Z,39.39
2023-05-16T07:21:28.472Z,39.14
2023-05-16T07:24:00.541Z,39.19
2023-05-16T07:26:32.383Z,39.33
2023-05-16T07:29:01.678Z,39.08
2023-05-16T07:31:30.734Z,39.24
2023-05-16T07:33:59.903Z,39.31
2023-05-16T07:36:29.135Z,39.17
2023-05-16T07:38:58.228Z,39.16
2023-05-16T07:41:27.928Z,39.15
2023-05-16T07:43:56.964Z,39.19
2023-05-16T07:46:26.183Z,39.11
2023-05-16T07:48:55.260Z,39.21
2023-05-16T07:51:26.257Z,39.05
2023-05-16T07:53:55.348Z,39.11
2023-05-16T07:56:27.970Z,39.15
2023-05-16T07:58:57.659Z,39.07
2023-05-16T08:01:26.731Z,39.05
2023-05-16T08:03:55.977Z,39.20
2023-05-16T08:06:27.923Z,39.23
2023-05-16T08:08:56.960Z,39.19
2023-05-16T08:11:28.923Z,39.29
2023-05-16T08:13:58.039Z,39.50
2023-05-16T08:16:27.266Z,39.38
2023-05-16T08:18:56.902Z,39.17
2023-05-16T08:21:26.101Z,39.24
2023-05-16T08:23:55.259Z,39.32
2023-05-16T08:26:27.064Z,39.31
2023-05-16T08:28:56.125Z,39.12
2023-05-16T08:31:25.245Z,39.10
2023-05-16T08:33:54.470Z,39.13
2023-05-16T08:36:23.554Z,39.36
2023-05-16T08:38:59.026Z,39.16
2023-05-16T08:41:28.160Z,39.17
2023-05-16T08:43:57.232Z,39.19
2023-05-16T08:46:26.487Z,39.35
2023-05-16T08:48:59.233Z,39.04
2023-05-16T08:51:29.465Z,39.15
2023-05-16T08:54:08.910Z,38.93
2023-05-16T08:56:38.053Z,39.11
2023-05-16T08:59:07.275Z,39.26
2023-05-16T09:01:36.523Z,39.27
2023-05-16T09:04:06.254Z,39.21
2023-05-16T09:06:35.334Z,39.05
2023-05-16T09:09:09.677Z,39.04
2023-05-16T09:11:38.687Z,38.82
2023-05-16T09:14:07.839Z,39.52
2023-05-16T09:16:39.713Z,39.32
2023-05-16T09:19:08.846Z,39.39
2023-05-16T09:21:38.032Z,39.21
2023-05-16T09:24:10.278Z,38.87
2023-05-16T09:26:40.219Z,38.78
2023-05-16T09:29:15.461Z,39.00
2023-05-16T09:31:47.726Z,38.83
2023-05-16T09:34:17.141Z,38.79
2023-05-16T09:36:46.539Z,38.57
2023-05-16T09:39:17.262Z,38.63
2023-05-16T09:41:46.261Z,38.75
2023-05-16T09:46:46.708Z,38.72
2023-05-16T09:49:16.216Z,38.69
2023-05-16T09:51:45.445Z,38.69
2023-05-16T09:54:17.670Z,38.67
2023-05-16T09:57:01.410Z,38.79
2023-05-16T09:59:32.178Z,38.76
2023-05-16T10:02:02.016Z,38.83
2023-05-16T10:04:31.198Z,38.57
2023-05-16T10:07:00.492Z,38.84
2023-05-16T10:09:29.635Z,38.55
2023-05-16T10:11:58.702Z,38.72
2023-05-16T10:14:28.156Z,38.78
2023-05-16T10:17:00.265Z,38.93
2023-05-16T10:19:29.372Z,38.53
2023-05-16T10:22:01.193Z,38.10
2023-05-16T10:24:31.929Z,38.83
2023-05-16T10:27:08.291Z,38.71
2023-05-16T10:29:53.617Z,38.89
2023-05-16T10:32:27.137Z,38.85
2023-05-16T10:34:59.892Z,38.78
2023-05-16T10:37:29.065Z,38.51
2023-05-16T10:39:58.225Z,38.95
2023-05-16T10:42:30.342Z,38.80
2023-05-16T10:45:13.814Z,38.67
2023-05-16T10:47:42.883Z,39.01
2023-05-16T10:50:12.323Z,38.89
2023-05-16T10:52:43.750Z,38.87
2023-05-16T10:55:12.799Z,39.25
2023-05-16T10:57:41.885Z,39.03
2023-05-16T11:00:11.947Z,38.97
2023-05-16T11:02:44.843Z,38.76
2023-05-16T11:05:20.212Z,38.61
2023-05-16T11:07:49.293Z,38.93
2023-05-16T11:10:18.418Z,38.44
2023-05-16T11:12:53.779Z,38.61
2023-05-16T11:15:29.895Z,38.44
2023-05-16T11:18:08.480Z,38.19
2023-05-16T11:20:41.292Z,38.37
2023-05-16T11:23:19.282Z,38.02
2023-05-16T11:25:48.838Z,38.09
2023-05-16T11:28:20.946Z,37.96
2023-05-16T11:30:54.250Z,38.31
2023-05-16T11:33:26.903Z,38.21
2023-05-16T11:36:16.003Z,38.29
2023-05-16T11:38:45.980Z,38.60
2023-05-16T11:41:17.084Z,38.29
2023-05-16T11:43:46.888Z,38.26
2023-05-16T11:46:19.112Z,38.25
2023-05-16T11:48:48.831Z,37.93
2023-05-16T11:51:20.518Z,37.86
2023-05-16T11:53:51.422Z,38.12
2023-05-16T11:56:20.673Z,38.43
2023-05-16T11:58:50.108Z,38.57
2023-05-16T12:01:19.325Z,38.84
2023-05-16T12:03:56.380Z,38.69
2023-05-16T12:06:25.753Z,38.57
2023-05-16T12:08:58.006Z,38.37
2023-05-16T12:11:27.466Z,38.67
2023-05-16T12:13:59.437Z,38.75
2023-05-16T12:16:29.129Z,39.19
2023-05-16T12:19:07.409Z,38.80
2023-05-16T12:21:37.087Z,38.71
2023-05-16T12:24:09.141Z,39.54
2023-05-16T12:26:38.964Z,39.67
2023-05-16T12:29:08.385Z,40.08
2023-05-16T12:31:41.666Z,39.56
2023-05-16T12:34:18.069Z,39.86
2023-05-16T12:36:47.467Z,39.68
2023-05-16T12:39:19.804Z,39.83
2023-05-16T12:41:49.880Z,39.79
2023-05-16T12:44:21.052Z,39.76
2023-05-16T12:46:53.461Z,39.78
2023-05-16T12:49:23.814Z,40.35
2023-05-16T12:51:56.677Z,40.17
2023-05-16T12:54:25.806Z,39.94
2023-05-16T12:56:57.469Z,39.79
2023-05-16T12:59:39.740Z,39.86
2023-05-16T13:02:09.048Z,40.17
2023-05-16T13:04:38.600Z,40.03
2023-05-16T13:07:07.622Z,40.35
2023-05-16T13:09:36.875Z,40.34
2023-05-16T13:12:06.222Z,40.21
2023-05-16T13:14:35.318Z,40.17
2023-05-16T13:17:07.475Z,40.38
2023-05-16T13:19:36.587Z,40.56
2023-05-16T13:22:05.725Z,39.90
2023-05-16T13:24:37.775Z,40.46
2023-05-16T13:27:09.945Z,40.41
2023-05-16T13:29:39.043Z,40.51
2023-05-16T13:32:09.187Z,40.42
2023-05-16T13:34:38.453Z,40.81
2023-05-16T13:37:07.588Z,41.13
2023-05-16T13:39:36.792Z,40.70
2023-05-16T13:42:06.726Z,40.92
2023-05-16T13:44:35.935Z,40.36
2023-05-16T13:47:05.524Z,40.69
2023-05-16T13:49:35.043Z,40.55
2023-05-16T13:52:07.226Z,40.69
2023-05-16T13:54:36.411Z,40.93
2023-05-16T13:57:06.249Z,41.01
2023-05-16T13:59:59.211Z,40.93
2023-05-16T14:02:26.752Z,40.74
2023-05-16T14:04:56.091Z,40.38
2023-05-16T14:07:25.154Z,40.41
2023-05-16T14:09:54.626Z,40.18
2023-05-16T14:12:23.744Z,40.46
2023-05-16T14:14:52.806Z,40.40
2023-05-16T14:17:24.598Z,40.33
2023-05-16T14:19:54.181Z,40.36
2023-05-16T14:22:23.213Z,40.45
2023-05-16T14:24:55.835Z,40.50
2023-05-16T14:27:24.904Z,40.49
2023-05-16T14:29:57.398Z,40.79
2023-05-16T14:32:29.705Z,40.52
2023-05-16T14:35:01.755Z,40.76
2023-05-16T14:37:33.881Z,41.13
2023-05-16T14:40:04.926Z,41.01
2023-05-16T14:42:34.289Z,41.23
2023-05-16T14:45:06.257Z,40.95
2023-05-16T14:47:38.048Z,40.87
2023-05-16T14:50:07.587Z,40.90
2023-05-16T14:52:40.345Z,40.94
2023-05-16T14:55:09.465Z,41.10
2023-05-16T14:57:38.573Z,41.18
2023-05-16T15:00:09.134Z,40.88
2023-05-16T15:02:38.160Z,40.57
2023-05-16T15:05:08.378Z,40.81
2023-05-16T15:07:39.512Z,40.82
2023-05-16T15:10:09.026Z,40.84
2023-05-16T15:12:38.342Z,40.77
2023-05-16T15:15:07.641Z,40.60
2023-05-16T15:17:36.822Z,40.58
2023-05-16T15:20:07.032Z,40.87
2023-05-16T15:22:36.192Z,40.90
2023-05-16T15:25:07.275Z,40.92
2023-05-16T15:27:36.296Z,40.82
2023-05-16T15:30:07.935Z,40.72
2023-05-16T15:32:37.037Z,40.70
2023-05-16T15:35:06.800Z,40.73
2023-05-16T15:37:36.517Z,40.87
2023-05-16T15:40:09.895Z,40.66
2023-05-16T15:42:42.181Z,40.67
2023-05-16T15:45:11.913Z,40.58
2023-05-16T15:47:41.025Z,40.89
2023-05-16T15:50:12.985Z,40.57
2023-05-16T15:52:43.076Z,40.62
2023-05-16T15:55:16.186Z,40.65
2023-05-16T15:57:48.057Z,40.66
2023-05-16T16:00:17.474Z,40.38
2023-05-16T16:02:47.682Z,40.65
2023-05-16T16:05:16.995Z,40.50
2023-05-16T16:07:46.136Z,40.68
2023-05-16T16:10:19.034Z,40.67
2023-05-16T16:13:00.084Z,40.44
2023-05-16T16:15:33.347Z,40.65
2023-05-16T16:18:08.775Z,40.63
2023-05-16T16:20:38.134Z,40.79
2023-05-16T16:23:07.242Z,40.78
2023-05-16T16:25:36.429Z,40.52
2023-05-16T16:28:05.732Z,40.72
2023-05-16T16:30:37.536Z,40.74
2023-05-16T16:33:07.687Z,40.77
2023-05-16T16:35:37.006Z,40.80
2023-05-16T16:38:12.106Z,40.78
2023-05-16T16:40:41.475Z,40.61
2023-05-16T16:43:10.686Z,40.71
2023-05-16T16:45:39.694Z,40.74
2023-05-16T16:48:15.397Z,40.64
2023-05-16T16:50:45.018Z,40.72
2023-05-16T16:53:14.357Z,40.60
2023-05-16T16:55:46.830Z,40.93
2023-05-16T16:58:18.671Z,40.85
2023-05-16T17:00:49.940Z,40.88
2023-05-16T17:03:19.184Z,40.84
2023-05-16T17:06:04.980Z,41.00
2023-05-16T17:08:34.179Z,40.96
2023-05-16T17:11:06.689Z,41.05
2023-05-16T17:13:38.884Z,40.78
2023-05-16T17:16:08.311Z,41.05
2023-05-16T17:18:38.726Z,40.98
2023-05-16T17:21:08.067Z,41.03
2023-05-16T17:23:37.077Z,41.36
2023-05-16T17:26:06.646Z,41.37
2023-05-16T17:28:35.806Z,41.27
2023-05-16T17:31:05.596Z,40.99
2023-05-16T17:33:34.670Z,41.21
2023-05-16T17:36:04.115Z,41.26
2023-05-16T17:38:35.730Z,41.15
2023-05-16T17:41:04.785Z,41.00
2023-05-16T17:43:33.966Z,41.15
2023-05-16T17:46:03.585Z,41.42
2023-05-16T17:48:35.666Z,41.20
2023-05-16T17:51:07.550Z,41.65
2023-05-16T17:53:37.998Z,41.33
2023-05-16T17:56:07.256Z,41.28
2023-05-16T17:58:36.379Z,41.30
2023-05-16T18:01:09.458Z,41.47
2023-05-16T18:03:38.564Z,41.35
2023-05-16T18:06:08.606Z,41.65
2023-05-16T18:08:37.729Z,41.77
2023-05-16T18:11:06.910Z,41.42
2023-05-16T18:13:38.677Z,41.59
2023-05-16T18:16:07.972Z,41.73
2023-05-16T18:18:39.185Z,41.72
2023-05-16T18:21:08.371Z,41.79
2023-05-16T18:23:38.028Z,41.91
2023-05-16T18:26:10.717Z,41.67
2023-05-16T18:28:43.401Z,41.72
2023-05-16T18:31:12.710Z,41.54
2023-05-16T18:33:41.728Z,41.79
2023-05-16T18:36:10.765Z,41.91
2023-05-16T18:38:41.636Z,42.05
2023-05-16T18:41:10.734Z,42.04
2023-05-16T18:43:39.793Z,42.08
2023-05-16T18:46:18.089Z,42.01
2023-05-16T18:48:47.277Z,41.92
2023-05-16T18:51:16.326Z,42.43
2023-05-16T18:53:48.692Z,41.95
2023-05-16T18:56:17.788Z,42.17
2023-05-16T18:58:47.109Z,42.23
2023-05-16T19:01:16.242Z,42.38
2023-05-16T19:03:45.366Z,42.38
2023-05-16T19:06:14.671Z,42.10
2023-05-16T19:08:48.193Z,42.16
2023-05-16T19:11:18.364Z,42.26
2023-05-16T19:13:50.958Z,42.05
2023-05-16T19:16:20.141Z,42.25
2023-05-16T19:18:49.323Z,42.29
2023-05-16T19:21:18.545Z,42.26
2023-05-16T19:23:47.837Z,42.13
2023-05-16T19:26:16.879Z,42.33
2023-05-16T19:29:07.153Z,42.38
2023-05-16T19:31:36.389Z,42.21
2023-05-16T19:34:05.596Z,42.40
2023-05-16T19:36:46.455Z,42.35
2023-05-16T19:39:18.694Z,42.14
2023-05-16T19:41:52.210Z,42.27
2023-05-16T19:44:21.617Z,42.38
2023-05-16T19:46:50.614Z,42.21
2023-05-16T19:49:20.335Z,42.25
2023-05-16T19:51:49.439Z,42.47
2023-05-16T19:54:18.688Z,42.63
2023-05-16T19:56:47.794Z,42.83
2023-05-16T19:59:16.974Z,42.78
2023-05-16T20:01:46.136Z,42.93
2023-05-16T20:04:15.294Z,43.07
2023-05-16T20:06:44.367Z,42.97
2023-05-16T20:09:13.462Z,43.22
2023-05-16T20:11:42.645Z,43.21
2023-05-16T20:14:11.661Z,43.55
2023-05-16T20:16:40.739Z,43.49
2023-05-16T20:19:12.620Z,43.81
2023-05-16T20:21:44.687Z,43.47
2023-05-16T20:24:13.759Z,43.90
2023-05-16T20:26:43.379Z,43.84
2023-05-16T20:29:12.779Z,43.75
2023-05-16T20:31:44.274Z,43.79
2023-05-16T20:34:13.567Z,43.63
2023-05-16T20:36:45.742Z,43.98
2023-05-16T20:39:17.429Z,43.95
2023-05-16T20:41:46.443Z,44.14
2023-05-16T20:44:18.611Z,43.68
2023-05-16T20:46:48.117Z,43.78
2023-05-16T20:49:17.409Z,43.92
2023-05-16T20:51:46.438Z,43.89
2023-05-16T20:54:15.516Z,46.63
2023-05-16T20:56:44.700Z,49.84
2023-05-16T20:59:13.775Z,51.45
2023-05-16T21:01:42.831Z,51.61
2023-05-16T21:04:15.069Z,51.33
2023-05-16T21:06:44.115Z,51.93
2023-05-16T21:09:13.503Z,53.49
2023-05-16T21:11:42.628Z,52.87
2023-05-16T21:14:14.894Z,53.25
2023-05-16T21:16:43.925Z,53.65
2023-05-16T21:19:13.542Z,53.45
2023-05-16T21:21:42.738Z,52.72
2023-05-16T21:24:20.855Z,53.30
2023-05-16T21:26:50.132Z,53.19
2023-05-16T21:29:19.165Z,52.98
2023-05-16T21:31:51.696Z,52.54
2023-05-16T21:34:23.750Z,51.78
2023-05-16T21:36:52.880Z,52.38
2023-05-16T21:39:22.284Z,52.43
2023-05-16T21:41:53.706Z,51.42
2023-05-16T21:44:23.022Z,50.92
2023-05-16T21:46:52.144Z,50.59
2023-05-16T21:49:28.166Z,50.40
2023-05-16T21:52:07.317Z,50.92
2023-05-16T21:54:36.884Z,51.06
2023-05-16T21:57:08.656Z,50.84
2023-05-16T21:59:37.970Z,50.20
2023-05-16T22:02:10.262Z,50.25
2023-05-16T22:04:39.406Z,50.42
2023-05-16T22:07:10.949Z,49.57
2023-05-16T22:09:40.095Z,49.88
2023-05-16T22:12:16.541Z,50.21
2023-05-16T22:14:45.729Z,50.20
2023-05-16T22:17:17.563Z,49.46
2023-05-16T22:19:48.381Z,48.97
2023-05-16T22:22:19.983Z,49.16
2023-05-16T22:24:49.226Z,49.31
2023-05-16T22:27:28.165Z,49.05
2023-05-16T22:29:57.278Z,48.63
2023-05-16T22:32:26.539Z,49.07
2023-05-16T22:35:02.014Z,48.84
2023-05-16T22:37:34.100Z,47.66
2023-05-16T22:40:03.153Z,47.98
2023-05-16T22:42:33.190Z,46.45
2023-05-16T22:45:02.567Z,45.30
2023-05-16T22:47:37.137Z,45.51
2023-05-16T22:52:54.025Z,46.20
2023-05-16T22:55:23.065Z,46.37
2023-05-16T22:57:54.376Z,45.48
2023-05-16T23:00:27.349Z,46.36
2023-05-16T23:03:02.896Z,45.76
2023-05-16T23:05:45.426Z,45.01
2023-05-16T23:08:20.320Z,44.77
2023-05-16T23:11:00.073Z,44.96
2023-05-16T23:13:29.212Z,45.16
2023-05-16T23:16:01.276Z,44.60
2023-05-16T23:18:33.342Z,44.83
2023-05-16T23:21:12.968Z,44.47
2023-05-16T23:23:48.393Z,44.60
2023-05-16T23:26:24.155Z,43.80
2023-05-16T23:28:56.916Z,44.08
2023-05-16T23:31:26.956Z,44.07
2023-05-16T23:33:56.808Z,44.15
2023-05-16T23:36:38.628Z,43.01
2023-05-16T23:39:09.771Z,43.31
2023-05-16T23:44:30.221Z,43.52
2023-05-16T23:47:05.518Z,43.55
2023-05-16T23:49:35.558Z,43.53
2023-05-16T23:52:08.801Z,43.19
2023-05-16T23:54:38.468Z,43.32
2023-05-16T23:57:11.107Z,42.70
2023-05-16T23:59:43.778Z,43.25
